Terminal Aerodrome Forecast
Issued by NWS Charleston, WV

Current Version | Previous Version | Graphics & Text | Print | Product List | Glossary On
Versions: 1 2 3 4 5 6 7 8 9 10 11 12 13 14 15 16 17 18 19 20 21 22
000
FTUS41 KRLX 271458 AAA
TAFEKN
TAF AMD
KEKN 271458Z 2715/2812 14005KT P6SM -RA SCT040 BKN050
     FM271700 20008KT 3SM SHRA BR VCTS BKN050CB
     FM272200 21007KT P6SM -SHRA BKN025
     FM280100 22007KT P6SM BKN040
     FM280300 28007KT P6SM BKN015=

USA.gov is the U.S. government's official web portal to all federal, state and local government web resources and services.